Time;durP1;ratioP1;P1;durP2;ratioP2;P2;SDS_P1;SDS_P2;PMS_P1;PMS_P2;Temp;Humidity;BMP_temperature;BMP_pressure;BME280_temperature;BME280_humidity;BME280_pressure;Samples;Min_cycle;Max_cycle;Signal;HPM_P1;HPM_P2
2023/10/22 00:00:11;;;;;;;6.93;1.10;;;13.90;99.90;;;;;;5027909;28;20195;-69
2023/10/22 00:02:37;;;;;;;1.77;0.73;;;13.90;99.90;;;;;;5012845;28;20310;-70
2023/10/22 00:05:04;;;;;;;3.80;1.27;;;13.80;99.90;;;;;;5005621;28;20550;-70
2023/10/22 00:07:30;;;;;;;1.57;0.93;;;13.80;99.90;;;;;;5005292;28;20427;-70
2023/10/22 00:09:56;;;;;;;2.47;0.90;;;13.80;99.90;;;;;;5012602;28;20439;-70
2023/10/22 00:12:21;;;;;;;5.00;1.20;;;13.80;99.90;;;;;;5012850;28;20417;-69
2023/10/22 00:14:47;;;;;;;3.57;0.97;;;13.80;99.90;;;;;;5012762;28;20283;-71
2023/10/22 00:17:13;;;;;;;3.50;1.30;;;13.70;99.90;;;;;;5012734;28;20192;-71
2023/10/22 00:19:38;;;;;;;2.80;1.17;;;13.70;99.90;;;;;;5012471;28;20172;-71
2023/10/22 00:22:04;;;;;;;1.77;0.83;;;13.70;99.90;;;;;;5012244;28;20231;-71
2023/10/22 00:24:31;;;;;;;2.33;1.10;;;13.70;99.90;;;;;;5027784;28;20588;-71
2023/10/22 00:26:58;;;;;;;0.97;0.77;;;13.70;99.90;;;;;;5012436;28;20933;-71
2023/10/22 00:29:23;;;;;;;3.40;0.90;;;13.70;99.90;;;;;;5012446;28;20454;-70
2023/10/22 00:31:49;;;;;;;2.27;1.67;;;13.70;99.90;;;;;;5012272;28;20406;-70
2023/10/22 00:34:15;;;;;;;3.73;1.07;;;13.70;99.90;;;;;;5027666;28;20833;-71
2023/10/22 00:36:41;;;;;;;3.60;1.03;;;13.70;99.90;;;;;;5011177;28;20299;-70
2023/10/22 00:39:07;;;;;;;1.57;0.73;;;13.70;99.90;;;;;;5012655;28;20172;-71
2023/10/22 00:41:32;;;;;;;4.20;0.80;;;13.70;99.90;;;;;;5012211;28;20441;-71
2023/10/22 00:43:58;;;;;;;4.70;1.13;;;13.70;99.90;;;;;;5012799;28;20406;-71
2023/10/22 00:46:25;;;;;;;1.23;0.70;;;13.70;99.90;;;;;;5012410;28;20554;-70
2023/10/22 00:48:51;;;;;;;1.63;1.00;;;13.70;99.90;;;;;;5012184;28;20191;-70
2023/10/22 00:51:17;;;;;;;1.57;0.80;;;13.70;99.90;;;;;;5010991;28;20502;-70
2023/10/22 00:53:45;;;;;;;2.20;0.93;;;13.70;99.90;;;;;;5012133;28;20506;-71
2023/10/22 00:56:11;;;;;;;1.00;0.70;;;13.70;99.90;;;;;;5027401;28;20180;-70
2023/10/22 00:58:37;;;;;;;2.00;1.00;;;13.70;99.90;;;;;;5027115;28;20753;-70
2023/10/22 01:01:07;;;;;;;1.00;0.70;;;13.70;99.90;;;;;;5010558;28;20445;-71
2023/10/22 01:03:39;;;;;;;2.33;0.77;;;13.70;99.90;;;;;;5010527;28;20172;-70
2023/10/22 01:06:05;;;;;;;3.07;0.70;;;13.70;99.90;;;;;;5014183;28;20407;-71
2023/10/22 01:08:35;;;;;;;2.97;1.00;;;13.70;99.90;;;;;;5015823;28;20946;-69
2023/10/22 01:11:05;;;;;;;2.07;1.17;;;13.70;99.90;;;;;;5014528;28;20403;-71
2023/10/22 01:13:30;;;;;;;5.77;1.10;;;13.70;99.90;;;;;;5030992;28;20414;-71
2023/10/22 01:15:56;;;;;;;1.30;0.70;;;13.70;99.90;;;;;;5014569;28;20404;-71
2023/10/22 01:18:22;;;;;;;4.90;1.00;;;13.70;99.90;;;;;;5015933;28;20195;-70
2023/10/22 01:20:47;;;;;;;2.03;0.80;;;13.70;99.90;;;;;;5015810;28;20654;-70
2023/10/22 01:23:13;;;;;;;2.83;1.00;;;13.70;99.90;;;;;;5015362;28;20574;-70
2023/10/22 01:25:38;;;;;;;4.97;0.90;;;13.70;99.90;;;;;;5030560;28;20639;-71
2023/10/22 01:28:04;;;;;;;2.93;1.57;;;13.70;99.90;;;;;;5014814;28;20603;-69
2023/10/22 01:30:29;;;;;;;1.30;0.87;;;13.70;99.90;;;;;;5015531;28;20192;-69
2023/10/22 01:32:55;;;;;;;2.73;0.80;;;13.70;99.90;;;;;;5030982;28;20164;-70
2023/10/22 01:35:21;;;;;;;1.73;0.90;;;13.70;99.90;;;;;;5015527;28;20235;-71
2023/10/22 01:37:46;;;;;;;2.43;0.90;;;13.60;99.90;;;;;;5015625;28;20188;-70
2023/10/22 01:40:12;;;;;;;1.20;0.83;;;13.70;99.90;;;;;;5015494;28;20750;-70
2023/10/22 01:42:38;;;;;;;2.47;0.83;;;13.60;99.90;;;;;;5014551;28;20561;-69
2023/10/22 01:45:06;;;;;;;1.10;0.87;;;13.60;99.90;;;;;;5015467;28;20415;-70
2023/10/22 01:47:31;;;;;;;1.13;0.77;;;13.60;99.90;;;;;;5013879;28;20192;-70
2023/10/22 01:49:57;;;;;;;1.33;0.97;;;13.60;99.90;;;;;;5013857;28;20985;-70
2023/10/22 01:52:23;;;;;;;2.17;0.70;;;13.50;99.90;;;;;;5015247;28;20169;-71
2023/10/22 01:54:49;;;;;;;2.20;0.83;;;13.40;99.90;;;;;;5015343;28;20196;-70
2023/10/22 01:57:16;;;;;;;1.47;1.00;;;13.40;99.90;;;;;;5015225;28;20187;-70
2023/10/22 01:59:42;;;;;;;1.83;0.80;;;13.40;99.90;;;;;;5013856;28;20407;-70
2023/10/22 02:02:08;;;;;;;3.10;0.93;;;13.30;99.90;;;;;;5013854;28;20433;-70
2023/10/22 02:04:34;;;;;;;2.00;0.70;;;13.40;99.90;;;;;;5016726;28;20275;-70
2023/10/22 02:06:59;;;;;;;0.90;0.60;;;13.40;99.90;;;;;;5021805;28;21037;-71
2023/10/22 02:09:26;;;;;;;1.50;0.60;;;13.40;99.90;;;;;;5014956;28;20215;-70
2023/10/22 02:11:52;;;;;;;1.70;0.80;;;13.40;99.90;;;;;;5013696;28;20255;-71
2023/10/22 02:14:17;;;;;;;2.33;1.00;;;13.40;99.90;;;;;;5014896;28;20457;-71
2023/10/22 02:16:43;;;;;;;3.50;0.80;;;13.30;99.90;;;;;;5029109;28;20422;-70
2023/10/22 02:19:09;;;;;;;2.27;0.80;;;13.30;99.90;;;;;;5013851;28;20598;-71
2023/10/22 02:21:35;;;;;;;1.10;0.70;;;13.30;99.90;;;;;;5014543;28;20192;-70
2023/10/22 02:24:01;;;;;;;1.07;0.70;;;13.30;99.90;;;;;;5014810;28;20953;-71
2023/10/22 02:26:26;;;;;;;0.90;0.63;;;13.40;99.90;;;;;;5014652;28;20184;-70
2023/10/22 02:28:52;;;;;;;0.90;0.60;;;13.40;99.90;;;;;;5014485;28;20196;-71
2023/10/22 02:31:17;;;;;;;1.00;0.70;;;13.40;99.90;;;;;;5029728;28;20171;-70
2023/10/22 02:33:43;;;;;;;1.00;0.60;;;13.40;99.90;;;;;;5013347;28;20789;-70
2023/10/22 02:36:08;;;;;;;0.90;0.60;;;13.40;99.90;;;;;;5014519;28;20671;-70
2023/10/22 02:38:39;;;;;;;1.47;0.70;;;13.40;99.90;;;;;;5029662;28;20168;-71
2023/10/22 02:41:04;;;;;;;9.53;1.00;;;13.40;99.90;;;;;;5013110;28;20168;-70
2023/10/22 02:43:31;;;;;;;1.03;0.80;;;13.40;99.90;;;;;;5014481;28;20411;-71
2023/10/22 02:45:56;;;;;;;1.50;0.77;;;13.30;99.90;;;;;;5029645;28;20180;-70
2023/10/22 02:48:23;;;;;;;3.13;0.70;;;13.40;99.90;;;;;;5014094;28;20427;-71
2023/10/22 02:50:49;;;;;;;1.77;0.80;;;13.30;99.90;;;;;;5014128;28;20170;-70
2023/10/22 02:53:15;;;;;;;1.57;0.80;;;13.30;99.90;;;;;;5029472;28;20411;-71
2023/10/22 02:55:40;;;;;;;0.80;0.60;;;13.30;99.90;;;;;;5014219;28;20160;-71
2023/10/22 02:58:06;;;;;;;3.90;0.90;;;13.30;99.90;;;;;;5013814;28;20430;-71
2023/10/22 03:00:35;;;;;;;1.57;0.90;;;13.30;99.90;;;;;;5013939;28;20172;-70
2023/10/22 03:03:04;;;;;;;1.30;0.57;;;13.30;99.90;;;;;;5014028;28;20168;-70
2023/10/22 03:05:34;;;;;;;2.27;0.90;;;13.30;99.90;;;;;;5006302;28;20840;-70
2023/10/22 03:08:00;;;;;;;0.80;0.50;;;13.40;99.90;;;;;;5017212;28;20436;-71
2023/10/22 03:10:26;;;;;;;0.80;0.60;;;13.40;99.90;;;;;;5009625;28;20546;-71
2023/10/22 03:12:52;;;;;;;0.90;0.57;;;13.40;99.90;;;;;;5028899;28;20497;-70
2023/10/22 03:15:18;;;;;;;0.80;0.60;;;13.40;99.90;;;;;;5013851;28;20634;-70
2023/10/22 03:17:44;;;;;;;0.80;0.60;;;13.40;99.90;;;;;;5012406;28;20188;-71
2023/10/22 03:20:10;;;;;;;0.83;0.57;;;13.50;99.90;;;;;;5013853;28;20502;-70
2023/10/22 03:22:36;;;;;;;1.60;0.63;;;13.50;99.90;;;;;;5013910;28;20569;-71
2023/10/22 03:25:02;;;;;;;0.80;0.60;;;13.40;99.90;;;;;;5013173;28;20415;-71
2023/10/22 03:27:30;;;;;;;0.77;0.60;;;13.40;99.90;;;;;;5013509;28;20180;-70
2023/10/22 03:29:55;;;;;;;0.90;0.60;;;13.40;99.90;;;;;;5012105;28;20819;-71
2023/10/22 03:32:21;;;;;;;0.90;0.60;;;13.40;99.90;;;;;;5013243;28;20206;-71
2023/10/22 03:34:46;;;;;;;1.10;0.60;;;13.30;99.90;;;;;;5028718;28;20636;-71
2023/10/22 03:37:12;;;;;;;1.73;0.60;;;13.40;99.90;;;;;;5013328;28;20216;-70
2023/10/22 03:39:38;;;;;;;0.80;0.60;;;13.30;99.90;;;;;;5013276;28;20543;-70
2023/10/22 03:42:03;;;;;;;3.43;2.03;;;13.40;99.90;;;;;;5013284;28;20168;-71
2023/10/22 03:44:29;;;;;;;0.70;0.50;;;13.40;99.90;;;;;;5013334;28;20219;-71
2023/10/22 03:46:55;;;;;;;0.80;0.60;;;13.30;99.90;;;;;;5013081;28;20188;-71
2023/10/22 03:49:21;;;;;;;0.70;0.50;;;13.30;99.90;;;;;;5013081;28;20461;-71
2023/10/22 03:51:46;;;;;;;0.80;0.60;;;13.30;99.90;;;;;;5012969;28;20298;-70
2023/10/22 03:54:12;;;;;;;0.73;0.50;;;13.30;99.90;;;;;;5013060;28;20203;-71
2023/10/22 03:56:38;;;;;;;1.17;0.63;;;13.40;99.90;;;;;;5011762;28;20187;-71
2023/10/22 03:59:03;;;;;;;0.80;0.60;;;13.30;99.90;;;;;;5011829;28;20172;-71
2023/10/22 04:01:29;;;;;;;2.80;0.70;;;13.40;99.90;;;;;;5011781;28;20168;-70
2023/10/22 04:03:54;;;;;;;0.70;0.50;;;13.40;99.90;;;;;;5009331;28;20177;-70
2023/10/22 04:06:20;;;;;;;0.90;0.60;;;13.40;99.90;;;;;;4991338;28;20203;-71
2023/10/22 04:08:45;;;;;;;0.97;0.60;;;13.30;99.90;;;;;;5001507;28;20184;-71
2023/10/22 04:11:11;;;;;;;1.93;0.70;;;13.40;99.90;;;;;;5011150;28;20694;-72
2023/10/22 04:13:37;;;;;;;0.80;0.60;;;13.40;99.90;;;;;;5012526;28;20222;-70
2023/10/22 04:16:02;;;;;;;0.70;0.50;;;13.40;99.90;;;;;;5012688;28;20214;-71
2023/10/22 04:18:28;;;;;;;0.83;0.60;;;13.30;99.90;;;;;;5012491;28;20307;-71
2023/10/22 04:20:54;;;;;;;1.40;0.60;;;13.30;99.90;;;;;;5012382;28;20172;-71
2023/10/22 04:23:19;;;;;;;1.10;0.63;;;13.30;99.90;;;;;;4995055;28;20714;-71
2023/10/22 04:25:45;;;;;;;0.70;0.50;;;13.20;99.90;;;;;;5011510;28;20249;-70
2023/10/22 04:28:12;;;;;;;0.80;0.70;;;13.10;99.90;;;;;;5007505;28;20275;-70
2023/10/22 04:30:38;;;;;;;1.30;0.67;;;13.10;99.90;;;;;;4993930;28;20541;-71
2023/10/22 04:33:05;;;;;;;1.07;0.70;;;13.10;99.90;;;;;;5012262;28;20410;-70
2023/10/22 04:35:34;;;;;;;0.80;0.50;;;13.00;99.90;;;;;;5012364;28;20411;-71
2023/10/22 04:38:01;;;;;;;0.80;0.60;;;13.00;99.90;;;;;;4986288;28;20439;-71
2023/10/22 04:40:31;;;;;;;3.00;2.63;;;13.00;99.90;;;;;;5012170;28;20407;-71
2023/10/22 04:42:57;;;;;;;0.80;0.60;;;13.10;99.90;;;;;;5027033;28;20407;-71
2023/10/22 04:45:23;;;;;;;0.80;0.60;;;13.00;99.90;;;;;;5012222;28;20410;-70
2023/10/22 04:47:49;;;;;;;0.70;0.50;;;13.00;99.90;;;;;;5012133;28;20310;-71
2023/10/22 04:50:14;;;;;;;0.80;0.60;;;13.00;99.90;;;;;;4994580;28;20461;-71
2023/10/22 04:52:40;;;;;;;7.23;3.57;;;12.90;99.90;;;;;;5012208;28;20160;-71
2023/10/22 04:55:05;;;;;;;1.13;0.60;;;12.90;99.90;;;;;;4994749;28;20168;-71
2023/10/22 04:57:31;;;;;;;1.87;0.67;;;12.90;99.90;;;;;;4994368;28;20674;-70
2023/10/22 04:59:57;;;;;;;1.73;0.60;;;12.90;99.90;;;;;;5010703;28;20255;-71
2023/10/22 05:02:23;;;;;;;0.90;0.50;;;12.90;99.90;;;;;;5012121;28;20287;-71
2023/10/22 05:04:50;;;;;;;0.70;0.60;;;12.90;99.90;;;;;;5008026;28;20214;-71
2023/10/22 05:07:16;;;;;;;0.90;0.63;;;12.80;99.90;;;;;;5000642;28;20343;-71
2023/10/22 05:09:42;;;;;;;0.90;0.60;;;12.80;99.90;;;;;;5011871;28;20805;-71
2023/10/22 05:12:08;;;;;;;1.63;0.70;;;12.80;99.90;;;;;;5011850;28;20164;-70
2023/10/22 05:14:33;;;;;;;0.80;0.57;;;12.80;99.90;;;;;;5011917;28;20414;-71
2023/10/22 05:16:59;;;;;;;0.90;0.60;;;12.80;99.90;;;;;;5011768;28;20435;-71
2023/10/22 05:19:25;;;;;;;0.70;0.50;;;12.80;99.90;;;;;;5011961;28;20172;-71
2023/10/22 05:21:51;;;;;;;1.10;0.80;;;12.90;99.90;;;;;;5027075;28;20516;-70
2023/10/22 05:24:17;;;;;;;0.90;0.60;;;12.90;99.90;;;;;;5027132;28;20473;-71
2023/10/22 05:26:42;;;;;;;0.70;0.50;;;13.00;99.90;;;;;;5011648;28;20207;-70
2023/10/22 05:29:08;;;;;;;0.70;0.50;;;13.00;99.90;;;;;;5002232;28;20187;-71
2023/10/22 05:31:34;;;;;;;0.70;0.60;;;13.10;99.90;;;;;;5026794;28;20172;-71
2023/10/22 05:33:59;;;;;;;0.70;0.50;;;13.20;99.90;;;;;;5011765;28;20168;-72
2023/10/22 05:36:26;;;;;;;0.70;0.50;;;13.10;99.90;;;;;;5011686;28;20219;-72
2023/10/22 05:38:51;;;;;;;0.70;0.50;;;13.20;99.90;;;;;;5026973;28;20674;-71
2023/10/22 05:41:21;;;;;;;0.77;0.57;;;13.20;99.90;;;;;;5010348;28;20429;-70
2023/10/22 05:43:47;;;;;;;0.70;0.50;;;13.30;99.90;;;;;;5011527;28;20172;-71
2023/10/22 05:46:13;;;;;;;1.00;0.80;;;13.40;99.90;;;;;;5016692;28;20434;-71
2023/10/22 05:48:38;;;;;;;2.50;1.40;;;13.50;99.90;;;;;;5011027;28;21092;-71
2023/10/22 05:51:04;;;;;;;0.80;0.80;;;13.60;99.90;;;;;;5013152;28;20168;-71
2023/10/22 05:53:29;;;;;;;6.20;0.60;;;13.50;99.90;;;;;;5015169;28;20181;-71
2023/10/22 05:55:57;;;;;;;0.90;0.60;;;13.50;99.90;;;;;;5016140;28;20263;-71
2023/10/22 05:58:23;;;;;;;2.33;0.60;;;13.30;99.90;;;;;;5014951;28;20192;-71
2023/10/22 06:00:49;;;;;;;1.00;0.87;;;13.20;99.90;;;;;;5015022;28;20429;-71
2023/10/22 06:03:14;;;;;;;2.40;0.70;;;13.00;99.90;;;;;;5015253;28;20403;-71
2023/10/22 06:05:40;;;;;;;2.60;0.70;;;12.90;99.90;;;;;;5012784;28;20176;-71
2023/10/22 06:08:05;;;;;;;3.00;0.97;;;12.80;99.90;;;;;;5014845;28;20555;-71
2023/10/22 06:10:31;;;;;;;3.10;1.00;;;12.70;99.90;;;;;;5014567;28;20235;-71
2023/10/22 06:12:56;;;;;;;2.80;0.90;;;12.70;99.90;;;;;;4997209;28;20176;-71
2023/10/22 06:15:22;;;;;;;1.50;0.77;;;12.60;99.90;;;;;;5018423;28;20168;-71
2023/10/22 06:17:47;;;;;;;0.97;0.83;;;12.60;99.90;;;;;;5014400;28;20192;-71
2023/10/22 06:20:13;;;;;;;0.87;0.67;;;12.60;99.90;;;;;;5014615;28;20180;-71
2023/10/22 06:22:38;;;;;;;0.90;0.70;;;12.60;99.90;;;;;;5014777;28;20587;-71
2023/10/22 06:25:04;;;;;;;1.03;0.80;;;12.60;99.90;;;;;;5029816;28;20183;-72
2023/10/22 06:27:30;;;;;;;1.10;0.83;;;12.60;99.90;;;;;;5014649;28;20234;-72
2023/10/22 06:29:55;;;;;;;1.50;1.33;;;12.60;99.90;;;;;;5014510;28;20196;-71
2023/10/22 06:32:21;;;;;;;1.33;1.03;;;12.50;99.90;;;;;;5030192;28;20164;-71
2023/10/22 06:34:47;;;;;;;0.80;0.70;;;12.40;99.90;;;;;;5014924;28;20172;-72
2023/10/22 06:37:12;;;;;;;0.70;0.50;;;12.50;99.90;;;;;;5014456;28;20200;-71
2023/10/22 06:39:38;;;;;;;1.67;0.80;;;12.30;99.90;;;;;;5014521;28;20275;-72
2023/10/22 06:42:04;;;;;;;0.90;0.60;;;12.30;99.90;;;;;;5014502;28;20200;-71
2023/10/22 06:44:29;;;;;;;1.30;0.80;;;12.30;99.90;;;;;;5014896;28;20330;-71
2023/10/22 06:46:55;;;;;;;0.90;0.77;;;12.20;99.90;;;;;;5029466;28;20518;-71
2023/10/22 06:49:20;;;;;;;1.30;0.70;;;12.20;99.90;;;;;;5029507;28;20202;-71
2023/10/22 06:51:46;;;;;;;1.27;0.90;;;12.10;99.90;;;;;;5029542;28;20533;-71
2023/10/22 06:54:11;;;;;;;1.50;1.20;;;12.20;99.90;;;;;;5013012;28;20199;-71
2023/10/22 06:56:37;;;;;;;2.70;1.53;;;12.10;99.90;;;;;;5014124;28;20540;-71
2023/10/22 06:59:03;;;;;;;2.67;2.10;;;12.10;99.90;;;;;;5014226;28;20165;-72
2023/10/22 07:01:29;;;;;;;2.17;0.90;;;12.10;99.90;;;;;;5013615;28;20199;-72
2023/10/22 07:03:55;;;;;;;2.30;0.80;;;12.10;99.90;;;;;;5012972;28;20423;-71
2023/10/22 07:06:20;;;;;;;1.83;0.90;;;12.10;99.90;;;;;;5013806;28;20514;-71
2023/10/22 07:08:46;;;;;;;1.30;0.70;;;12.10;99.90;;;;;;5009720;28;20184;-71
2023/10/22 07:11:12;;;;;;;4.50;1.10;;;12.10;99.90;;;;;;5023171;28;20180;-71
2023/10/22 07:13:37;;;;;;;1.93;1.00;;;12.10;99.90;;;;;;5008645;28;20516;-71
2023/10/22 07:16:03;;;;;;;1.23;0.90;;;12.10;99.90;;;;;;5012553;28;20214;-72
2023/10/22 07:18:28;;;;;;;1.53;0.80;;;12.10;99.90;;;;;;5018035;28;20173;-71
2023/10/22 07:20:54;;;;;;;1.40;1.00;;;12.10;99.90;;;;;;5011848;28;20172;-71
2023/10/22 07:23:20;;;;;;;1.87;0.77;;;12.10;99.90;;;;;;5013635;28;20165;-71
2023/10/22 07:25:46;;;;;;;0.80;0.70;;;12.20;99.90;;;;;;5013858;28;20174;-71
2023/10/22 07:28:12;;;;;;;3.37;2.33;;;12.30;99.90;;;;;;5013761;28;20208;-71
2023/10/22 07:30:44;;;;;;;1.50;1.13;;;12.30;99.90;;;;;;5028273;28;20473;-72
2023/10/22 07:33:10;;;;;;;1.20;0.80;;;12.40;99.90;;;;;;5005869;28;20407;-71
2023/10/22 07:35:35;;;;;;;1.00;0.73;;;12.40;99.90;;;;;;4996001;28;20798;-71
2023/10/22 07:38:01;;;;;;;0.80;0.70;;;12.50;99.90;;;;;;4995807;28;20246;-71
2023/10/22 07:40:26;;;;;;;2.00;0.90;;;12.50;99.90;;;;;;5013241;28;20554;-71
2023/10/22 07:42:53;;;;;;;2.07;0.80;;;12.60;99.90;;;;;;5012211;28;20175;-70
2023/10/22 07:45:19;;;;;;;1.83;0.90;;;12.60;99.90;;;;;;5013393;28;20590;-71
2023/10/22 07:47:44;;;;;;;0.80;0.70;;;12.60;99.90;;;;;;5013234;28;20415;-70
2023/10/22 07:50:10;;;;;;;4.00;0.83;;;12.70;99.90;;;;;;5012961;28;20221;-71
2023/10/22 07:52:36;;;;;;;1.27;0.90;;;12.70;99.90;;;;;;5013142;28;20160;-71
2023/10/22 07:55:03;;;;;;;1.63;0.97;;;12.60;99.90;;;;;;4995419;28;20176;-71
2023/10/22 07:57:28;;;;;;;2.17;1.03;;;12.60;99.90;;;;;;5013013;28;20423;-71
2023/10/22 07:59:56;;;;;;;1.40;0.80;;;12.70;99.90;;;;;;5012939;28;20538;-71
2023/10/22 08:02:21;;;;;;;1.40;1.00;;;12.80;99.90;;;;;;5013064;28;20199;-71
2023/10/22 08:04:47;;;;;;;1.00;0.90;;;12.80;99.90;;;;;;5011698;28;20411;-71
2023/10/22 08:07:13;;;;;;;4.70;1.00;;;12.80;99.90;;;;;;5012817;28;20195;-71
2023/10/22 08:09:38;;;;;;;1.00;0.80;;;13.00;99.90;;;;;;5011416;28;20537;-71
2023/10/22 08:12:04;;;;;;;0.83;0.70;;;13.00;99.90;;;;;;5012793;28;20215;-71
2023/10/22 08:14:29;;;;;;;0.90;0.73;;;13.20;99.90;;;;;;5010884;28;20218;-72
2023/10/22 08:16:55;;;;;;;0.90;0.70;;;13.30;99.90;;;;;;5012776;28;20604;-71
2023/10/22 08:19:20;;;;;;;2.07;0.83;;;13.40;99.90;;;;;;5012608;28;20172;-72
2023/10/22 08:21:46;;;;;;;1.23;0.80;;;13.40;99.90;;;;;;5012280;28;20176;-71
2023/10/22 08:24:11;;;;;;;1.77;1.10;;;13.50;99.90;;;;;;5012563;28;20196;-71
2023/10/22 08:26:38;;;;;;;2.07;1.10;;;13.70;99.90;;;;;;5012438;28;20200;-71
2023/10/22 08:29:03;;;;;;;1.53;1.03;;;13.80;99.90;;;;;;5012750;28;20283;-71
2023/10/22 08:31:29;;;;;;;2.60;1.63;;;14.00;99.90;;;;;;5027766;28;20502;-71
2023/10/22 08:33:54;;;;;;;5.97;4.27;;;14.10;99.90;;;;;;5012263;28;20172;-71
2023/10/22 08:36:20;;;;;;;4.30;3.87;;;14.20;99.90;;;;;;5010961;28;20277;-71
2023/10/22 08:38:45;;;;;;;6.40;3.10;;;14.40;99.90;;;;;;5010837;28;20187;-72
2023/10/22 08:41:20;;;;;;;1.80;1.57;;;14.40;99.90;;;;;;5012034;28;20254;-71
2023/10/22 08:43:48;;;;;;;2.50;1.53;;;14.50;99.90;;;;;;5012453;28;20179;-72
2023/10/22 08:46:14;;;;;;;2.90;1.43;;;14.60;99.90;;;;;;5011269;28;20918;-71
2023/10/22 08:48:40;;;;;;;1.60;1.27;;;14.50;99.90;;;;;;5011091;28;20427;-71
2023/10/22 08:51:07;;;;;;;2.13;1.23;;;14.60;99.90;;;;;;5011511;28;20410;-72
2023/10/22 08:53:33;;;;;;;2.20;1.20;;;14.50;99.90;;;;;;5011434;28;20970;-72
2023/10/22 08:56:00;;;;;;;1.40;1.30;;;14.40;99.90;;;;;;4990344;28;20411;-71
2023/10/22 08:58:26;;;;;;;1.73;1.50;;;14.50;99.90;;;;;;4991737;28;20539;-71
2023/10/22 09:00:51;;;;;;;2.00;1.80;;;14.60;99.90;;;;;;4999899;28;20419;-71
2023/10/22 09:03:19;;;;;;;2.67;2.10;;;14.80;99.90;;;;;;5011986;28;20172;-71
2023/10/22 09:05:45;;;;;;;3.00;1.10;;;14.90;99.90;;;;;;5017573;28;20180;-71
2023/10/22 09:08:11;;;;;;;1.00;0.70;;;14.90;99.90;;;;;;5018677;28;20438;-71
2023/10/22 09:10:37;;;;;;;0.90;0.80;;;14.80;99.90;;;;;;5011941;28;20454;-70
2023/10/22 09:13:21;;;;;;;1.00;0.80;;;14.90;99.90;;;;;;5002569;28;20407;-71
2023/10/22 09:15:48;;;;;;;1.17;0.77;;;14.80;99.90;;;;;;5011141;28;20422;-71
2023/10/22 09:18:15;;;;;;;2.10;0.70;;;14.80;99.90;;;;;;5010754;28;20449;-72
2023/10/22 09:20:42;;;;;;;1.57;1.00;;;14.80;99.90;;;;;;5011523;28;20419;-71
2023/10/22 09:23:18;;;;;;;1.10;0.80;;;14.70;99.90;;;;;;5011173;28;20919;-71
2023/10/22 09:25:48;;;;;;;1.37;0.80;;;14.70;99.90;;;;;;4997184;28;20441;-72
2023/10/22 09:28:20;;;;;;;0.80;0.60;;;14.60;99.90;;;;;;4998024;28;20868;-71
2023/10/22 09:30:47;;;;;;;1.20;0.70;;;14.60;99.90;;;;;;4997669;28;20541;-71
2023/10/22 09:33:17;;;;;;;1.07;0.70;;;14.60;99.90;;;;;;5014156;28;20496;-71
2023/10/22 09:35:58;;;;;;;1.40;1.07;;;14.60;99.90;;;;;;5014817;28;20556;-71
2023/10/22 09:38:40;;;;;;;6.63;4.07;;;14.60;99.90;;;;;;5015294;28;20426;-71
2023/10/22 09:41:06;;;;;;;1.00;0.80;;;14.70;99.90;;;;;;5015223;28;20409;-71
2023/10/22 09:43:31;;;;;;;1.00;0.60;;;14.60;99.90;;;;;;5015008;28;20410;-72
2023/10/22 09:45:59;;;;;;;1.00;0.70;;;14.70;99.90;;;;;;5014353;28;20210;-72
2023/10/22 09:48:28;;;;;;;0.80;0.63;;;14.80;99.90;;;;;;5015117;28;20439;-72
2023/10/22 09:50:54;;;;;;;0.80;0.70;;;14.80;99.90;;;;;;5014957;28;20470;-72
2023/10/22 09:53:26;;;;;;;4.80;0.80;;;14.80;99.90;;;;;;5015519;28;20411;-72
2023/10/22 09:55:54;;;;;;;0.90;0.80;;;14.80;99.90;;;;;;5014125;28;20419;-72
2023/10/22 09:58:32;;;;;;;1.20;0.87;;;14.80;99.90;;;;;;5015152;28;20434;-71
2023/10/22 10:00:59;;;;;;;1.00;0.73;;;14.70;99.90;;;;;;5015174;28;20475;-72
2023/10/22 10:03:26;;;;;;;1.57;0.87;;;14.80;99.90;;;;;;5030296;28;20423;-71
2023/10/22 10:05:53;;;;;;;1.30;0.73;;;14.80;99.90;;;;;;5012460;28;20922;-71
2023/10/22 10:08:20;;;;;;;1.83;0.90;;;14.50;99.90;;;;;;5014812;28;20851;-72
2023/10/22 10:10:47;;;;;;;1.03;0.83;;;14.50;99.90;;;;;;5009512;28;20501;-72
2023/10/22 10:13:13;;;;;;;0.80;0.70;;;14.50;99.90;;;;;;5015023;28;20445;-71
2023/10/22 10:15:39;;;;;;;0.80;0.70;;;14.50;99.90;;;;;;5014978;28;20519;-71
2023/10/22 10:18:07;;;;;;;3.87;0.93;;;14.60;99.90;;;;;;5014621;28;20495;-71
2023/10/22 10:20:35;;;;;;;1.47;1.20;;;14.70;99.90;;;;;;5014612;28;20208;-72
2023/10/22 10:23:09;;;;;;;1.00;0.80;;;14.80;99.90;;;;;;5014840;28;20449;-71
2023/10/22 10:25:38;;;;;;;1.53;0.83;;;14.90;99.90;;;;;;5014795;28;20465;-71
2023/10/22 10:28:05;;;;;;;1.43;0.73;;;15.00;99.90;;;;;;5014619;28;20435;-72
2023/10/22 10:30:32;;;;;;;2.30;0.90;;;15.00;99.90;;;;;;5014397;28;20917;-72
2023/10/22 10:32:57;;;;;;;1.57;1.03;;;15.20;99.90;;;;;;5014590;28;20778;-73
2023/10/22 10:35:24;;;;;;;2.77;1.10;;;15.50;99.90;;;;;;5010475;28;20430;-72
2023/10/22 10:38:11;;;;;;;1.10;0.90;;;15.80;99.90;;;;;;5010808;28;20567;-71
2023/10/22 10:40:56;;;;;;;1.47;0.90;;;16.10;99.90;;;;;;5014286;28;20790;-71
2023/10/22 10:44:00;;;;;;;3.00;1.33;;;16.20;99.90;;;;;;5013296;28;20433;-72
2023/10/22 10:46:27;;;;;;;1.40;1.00;;;16.40;99.90;;;;;;5011353;28;20455;-71
2023/10/22 10:48:52;;;;;;;1.50;1.00;;;16.40;99.90;;;;;;5014315;28;20453;-72
2023/10/22 10:51:24;;;;;;;3.00;1.77;;;16.40;99.90;;;;;;5014082;28;20423;-72
2023/10/22 10:54:04;;;;;;;1.43;1.20;;;16.20;99.90;;;;;;5014313;28;20255;-72
2023/10/22 10:56:51;;;;;;;1.00;0.90;;;16.20;99.90;;;;;;5014027;28;20462;-72
2023/10/22 10:59:30;;;;;;;1.10;0.70;;;16.10;99.90;;;;;;5014157;28;20411;-72
2023/10/22 11:02:07;;;;;;;1.10;0.80;;;16.10;99.90;;;;;;5014070;28;20415;-72
2023/10/22 11:04:36;;;;;;;1.40;1.00;;;16.20;99.90;;;;;;5013533;28;20529;-73
2023/10/22 11:07:02;;;;;;;1.30;1.20;;;16.10;99.90;;;;;;5013203;28;20514;-72
2023/10/22 11:09:27;;;;;;;1.63;1.30;;;16.20;99.90;;;;;;5013809;28;20973;-72
2023/10/22 11:11:58;;;;;;;3.37;0.73;;;16.20;99.90;;;;;;5013725;28;20438;-72
2023/10/22 11:14:23;;;;;;;1.00;0.80;;;16.10;99.90;;;;;;5013921;28;20166;-71
2023/10/22 11:16:58;;;;;;;1.50;0.70;;;16.20;99.90;;;;;;5009146;28;20434;-71
2023/10/22 11:19:27;;;;;;;1.10;0.80;;;16.20;99.90;;;;;;5013704;28;20419;-71
2023/10/22 11:21:54;;;;;;;1.07;0.90;;;16.30;99.90;;;;;;5013498;28;20407;-71
2023/10/22 11:24:25;;;;;;;0.90;0.70;;;16.40;99.90;;;;;;5013792;28;20774;-71
2023/10/22 11:26:51;;;;;;;1.20;0.90;;;16.50;99.90;;;;;;5013645;28;20956;-71
2023/10/22 11:29:17;;;;;;;1.10;0.83;;;16.60;99.90;;;;;;5013348;28;20481;-71
2023/10/22 11:31:51;;;;;;;1.87;0.97;;;16.60;99.90;;;;;;5013485;28;20423;-72
2023/10/22 11:34:17;;;;;;;1.77;1.00;;;16.70;99.90;;;;;;5013669;28;20863;-72
2023/10/22 11:36:43;;;;;;;2.63;1.10;;;16.60;99.90;;;;;;5013337;28;20538;-72
2023/10/22 11:39:17;;;;;;;1.73;1.10;;;16.70;99.90;;;;;;5013512;28;20246;-72
2023/10/22 11:41:42;;;;;;;1.10;0.97;;;16.90;99.90;;;;;;5013271;28;20168;-71
2023/10/22 11:44:08;;;;;;;2.40;2.20;;;17.20;99.90;;;;;;5013344;28;20847;-72
2023/10/22 11:46:43;;;;;;;1.50;1.40;;;17.40;99.90;;;;;;5013208;28;20192;-71
2023/10/22 11:49:09;;;;;;;1.70;1.30;;;17.70;99.90;;;;;;5012149;28;20476;-72
2023/10/22 11:51:44;;;;;;;1.10;1.00;;;18.00;99.90;;;;;;5016552;28;20416;-72
2023/10/22 11:54:09;;;;;;;2.57;1.30;;;18.10;99.90;;;;;;5009088;28;20263;-71
2023/10/22 11:56:35;;;;;;;2.80;1.70;;;18.20;99.90;;;;;;5012569;28;20530;-71
2023/10/22 11:59:00;;;;;;;1.90;1.30;;;18.30;99.90;;;;;;5013239;28;20632;-71
2023/10/22 12:01:26;;;;;;;1.27;1.17;;;18.40;99.90;;;;;;5008394;28;20251;-71
2023/10/22 12:03:52;;;;;;;1.00;0.80;;;18.40;99.90;;;;;;5004568;28;20245;-72
2023/10/22 12:06:17;;;;;;;1.53;1.00;;;18.50;99.90;;;;;;5005605;28;20266;-71
2023/10/22 12:08:43;;;;;;;1.00;0.80;;;18.80;99.90;;;;;;5003230;28;20176;-71
2023/10/22 12:11:08;;;;;;;3.47;1.30;;;19.10;99.90;;;;;;5012685;28;20230;-71
2023/10/22 12:13:34;;;;;;;1.63;0.90;;;19.40;99.90;;;;;;5012757;28;20222;-71
2023/10/22 12:15:59;;;;;;;1.23;0.80;;;19.50;99.90;;;;;;5012623;28;20666;-71
2023/10/22 12:18:26;;;;;;;0.90;0.63;;;19.50;99.90;;;;;;5027867;28;20354;-71
2023/10/22 12:20:51;;;;;;;1.27;0.80;;;19.30;99.90;;;;;;5027727;28;20592;-71
2023/10/22 12:23:17;;;;;;;1.20;1.00;;;19.00;99.90;;;;;;5012724;28;20442;-71
2023/10/22 12:25:42;;;;;;;1.20;1.10;;;18.70;99.90;;;;;;5012617;28;20533;-70
2023/10/22 12:28:08;;;;;;;1.40;1.00;;;17.90;99.90;;;;;;5027684;28;20192;-70
2023/10/22 12:30:34;;;;;;;2.03;1.83;;;17.70;99.90;;;;;;5012296;28;20192;-70
2023/10/22 12:33:00;;;;;;;3.60;2.80;;;17.30;99.90;;;;;;5012513;28;20160;-70
2023/10/22 12:35:25;;;;;;;2.60;2.40;;;17.40;99.90;;;;;;5011038;28;20542;-70
2023/10/22 12:37:51;;;;;;;1.50;1.40;;;17.40;99.90;;;;;;5012378;28;20223;-70
2023/10/22 12:40:17;;;;;;;1.40;1.30;;;17.40;99.90;;;;;;5012238;28;20179;-71
2023/10/22 12:42:42;;;;;;;1.53;1.43;;;17.30;99.90;;;;;;5027476;28;20415;-70
2023/10/22 12:45:09;;;;;;;3.80;1.73;;;17.20;99.90;;;;;;5027699;28;20179;-70